createdAt,value
2019-01-03T00:02:27.247Z,6.02
2019-01-03T00:05:15.566Z,6.60
2019-01-03T00:11:04.852Z,6.18
2019-01-03T00:13:50.937Z,6.75
2019-01-03T00:16:36.646Z,6.58
2019-01-03T00:19:16.537Z,6.00
2019-01-03T00:21:49.153Z,6.62
2019-01-03T00:24:19.068Z,6.61
2019-01-03T00:26:53.712Z,7.09
2019-01-03T00:29:36.324Z,6.34
2019-01-03T00:32:06.252Z,6.35
2019-01-03T00:34:42.234Z,6.46
2019-01-03T00:37:18.189Z,7.35
2019-01-03T00:39:56.617Z,7.15
2019-01-03T00:42:26.511Z,6.61
2019-01-03T00:45:12.667Z,7.00
2019-01-03T00:47:54.310Z,6.45
2019-01-03T00:50:29.893Z,6.11
2019-01-03T00:53:11.582Z,6.67
2019-01-03T00:55:47.099Z,6.65
2019-01-03T00:58:17.010Z,6.32
2019-01-03T01:00:49.344Z,6.09
2019-01-03T01:03:36.812Z,6.08
2019-01-03T01:06:09.526Z,6.85
2019-01-03T01:08:39.510Z,6.13
2019-01-03T01:11:20.877Z,6.15
2019-01-03T01:13:59.588Z,7.01
2019-01-03T01:16:29.467Z,6.78
2019-01-03T01:19:15.314Z,6.21
2019-01-03T01:22:01.306Z,6.45
2019-01-03T01:24:33.907Z,5.97
2019-01-03T01:27:15.265Z,6.32
2019-01-03T01:30:00.872Z,6.33
2019-01-03T01:32:36.493Z,6.64
2019-01-03T01:35:18.057Z,7.52
2019-01-03T01:38:03.034Z,6.78
2019-01-03T01:40:39.103Z,6.67
2019-01-03T01:43:25.005Z,6.62
2019-01-03T01:46:03.938Z,6.53
2019-01-03T01:48:49.857Z,6.51
2019-01-03T01:51:25.195Z,6.48
2019-01-03T01:54:12.741Z,6.60
2019-01-03T01:56:42.667Z,7.49
2019-01-03T01:59:24.374Z,6.70
2019-01-03T02:01:57.337Z,6.89
2019-01-03T02:04:35.830Z,6.38
2019-01-03T02:07:05.743Z,6.70
2019-01-03T02:09:44.429Z,6.72
2019-01-03T02:12:30.307Z,6.41
2019-01-03T02:15:12.031Z,7.08
2019-01-03T02:17:57.830Z,6.94
2019-01-03T02:20:39.554Z,6.99
2019-01-03T02:23:21.243Z,6.46
2019-01-03T02:26:07.385Z,6.27
2019-01-03T02:28:52.173Z,6.47
2019-01-03T02:31:39.886Z,6.53
2019-01-03T02:34:25.885Z,7.73
2019-01-03T02:37:11.629Z,7.62
2019-01-03T02:43:33.072Z,6.49
2019-01-03T02:46:05.614Z,6.81
2019-01-03T02:48:47.581Z,7.21
2019-01-03T02:51:32.335Z,6.57
2019-01-03T02:54:05.181Z,6.86
2019-01-03T02:56:40.548Z,6.84
2019-01-03T02:59:19.533Z,6.85
2019-01-03T03:01:52.376Z,6.67
2019-01-03T03:04:25.084Z,6.91
2019-01-03T03:06:54.995Z,7.06
2019-01-03T03:09:24.950Z,6.66
2019-01-03T03:12:10.566Z,6.83
2019-01-03T03:14:43.089Z,6.39
2019-01-03T03:17:18.668Z,6.84
2019-01-03T03:19:51.540Z,6.61
2019-01-03T03:22:27.471Z,6.36
2019-01-03T03:25:13.313Z,6.43
2019-01-03T03:27:58.829Z,6.38
2019-01-03T03:30:44.732Z,6.64
2019-01-03T03:33:20.455Z,6.91
2019-01-03T03:35:56.547Z,6.48
2019-01-03T03:38:29.425Z,6.54
2019-01-03T03:40:59.341Z,6.03
2019-01-03T03:43:34.687Z,5.97
2019-01-03T03:46:16.268Z,5.64
2019-01-03T03:48:54.894Z,6.27
2019-01-03T03:51:24.803Z,6.03
2019-01-03T03:54:00.413Z,6.16
2019-01-03T03:56:30.329Z,6.53
2019-01-03T03:59:23.525Z,6.48
2019-01-03T04:02:09.291Z,5.95
2019-01-03T04:04:55.347Z,6.00
2019-01-03T04:07:31.050Z,6.32
2019-01-03T04:10:00.982Z,7.21
2019-01-03T04:12:39.756Z,6.90
2019-01-03T04:15:25.300Z,6.04
2019-01-03T04:18:04.160Z,6.54
2019-01-03T04:20:51.948Z,6.65
2019-01-03T04:23:27.306Z,7.17
2019-01-03T04:26:02.649Z,6.67
2019-01-03T04:28:48.773Z,7.12
2019-01-03T04:31:21.369Z,6.36
2019-01-03T04:34:07.145Z,6.29
2019-01-03T04:36:37.034Z,6.04
2019-01-03T04:39:08.262Z,6.12
2019-01-03T04:41:54.025Z,6.83
2019-01-03T04:44:29.901Z,6.50
2019-01-03T04:47:17.762Z,6.29
2019-01-03T04:50:12.097Z,6.52
2019-01-03T04:52:42.009Z,6.72
2019-01-03T04:55:27.505Z,6.62
2019-01-03T04:58:13.278Z,6.44
2019-01-03T05:00:43.175Z,6.34
2019-01-03T05:03:18.745Z,6.64
2019-01-03T05:05:54.114Z,6.19
2019-01-03T05:08:32.717Z,6.10
2019-01-03T05:11:18.777Z,6.27
2019-01-03T05:13:51.114Z,5.81
2019-01-03T05:16:21.028Z,5.42
2019-01-03T05:19:06.762Z,5.67
2019-01-03T05:21:52.903Z,5.74
2019-01-03T05:24:31.558Z,5.94
2019-01-03T05:27:04.451Z,5.78
2019-01-03T05:29:50.248Z,5.17
2019-01-03T05:32:25.610Z,5.67
2019-01-03T05:35:01.485Z,5.94
2019-01-03T05:37:40.143Z,6.13
2019-01-03T05:40:25.738Z,6.07
2019-01-03T05:43:04.542Z,6.56
2019-01-03T05:45:34.465Z,6.02
2019-01-03T05:48:10.012Z,6.76
2019-01-03T05:50:55.861Z,6.77
2019-01-03T05:53:37.707Z,5.57
2019-01-03T05:56:23.597Z,6.29
2019-01-03T05:58:53.514Z,5.83
2019-01-03T06:01:23.415Z,6.04
2019-01-03T06:03:53.417Z,5.93
2019-01-03T06:06:29.407Z,7.12
2019-01-03T06:09:52.005Z,6.16
2019-01-03T06:12:37.735Z,5.50
2019-01-03T06:15:13.565Z,6.75
2019-01-03T06:17:59.333Z,6.69
2019-01-03T06:20:34.881Z,6.47
2019-01-03T06:23:10.501Z,6.22
2019-01-03T06:25:42.949Z,5.62
2019-01-03T06:28:21.671Z,5.72
2019-01-03T06:31:03.391Z,5.82
2019-01-03T06:33:33.286Z,5.39
2019-01-03T06:36:19.119Z,5.35
2019-01-03T06:39:04.967Z,5.43
2019-01-03T06:41:40.672Z,5.14
2019-01-03T06:44:25.300Z,5.31
2019-01-03T06:47:10.021Z,5.34
2019-01-03T06:49:56.125Z,5.59
2019-01-03T06:52:41.964Z,5.54
2019-01-03T06:55:11.868Z,5.27
2019-01-03T06:57:50.435Z,4.98
2019-01-03T07:00:22.973Z,5.41
2019-01-03T07:03:04.974Z,5.65
2019-01-03T07:05:40.838Z,6.26
2019-01-03T07:08:22.710Z,6.26
2019-01-03T07:11:08.231Z,5.17
2019-01-03T07:13:49.913Z,4.80
2019-01-03T07:16:28.531Z,5.09
2019-01-03T07:18:58.425Z,4.84
2019-01-03T07:21:28.355Z,4.67
2019-01-03T07:24:00.862Z,5.10
2019-01-03T07:26:30.745Z,4.83
2019-01-03T07:29:16.448Z,5.19
2019-01-03T07:32:04.156Z,5.67
2019-01-03T07:34:49.859Z,5.72
2019-01-03T07:37:35.669Z,5.58
2019-01-03T07:40:22.840Z,5.59
2019-01-03T07:43:08.591Z,5.81
2019-01-03T07:45:50.453Z,6.08
2019-01-03T07:48:22.743Z,5.76
2019-01-03T07:50:52.631Z,6.66
2019-01-03T07:53:37.157Z,5.75
2019-01-03T07:56:23.204Z,5.98
2019-01-03T07:59:09.104Z,6.53
2019-01-03T08:01:44.857Z,6.38
2019-01-03T08:04:35.060Z,6.40
2019-01-03T08:07:23.049Z,6.18
2019-01-03T08:10:10.769Z,5.62
2019-01-03T08:12:56.883Z,5.65
2019-01-03T08:15:35.817Z,5.93
2019-01-03T08:18:11.496Z,5.93
2019-01-03T08:20:44.111Z,6.17
2019-01-03T08:23:29.913Z,6.28
2019-01-03T08:26:02.472Z,5.76
2019-01-03T08:28:32.361Z,6.06
2019-01-03T08:31:11.172Z,6.28
2019-01-03T08:33:41.060Z,6.25
2019-01-03T08:36:16.695Z,6.12
2019-01-03T08:38:55.764Z,6.68
2019-01-03T08:41:41.813Z,6.55
2019-01-03T08:44:27.898Z,5.80
2019-01-03T08:47:09.603Z,6.63
2019-01-03T08:49:45.181Z,6.92
2019-01-03T08:52:17.889Z,6.85
2019-01-03T08:55:03.687Z,6.35
2019-01-03T08:57:39.299Z,6.34
2019-01-03T09:00:23.097Z,6.34
2019-01-03T09:03:00.371Z,5.97
2019-01-03T09:05:30.675Z,6.53
2019-01-03T09:08:03.295Z,6.19
2019-01-03T09:10:49.087Z,6.54
2019-01-03T09:13:30.571Z,7.86
2019-01-03T09:16:16.362Z,7.66
2019-01-03T09:22:18.298Z,7.48
2019-01-03T09:24:48.191Z,6.87
2019-01-03T09:27:26.856Z,7.64
2019-01-03T09:30:12.673Z,6.61
2019-01-03T09:33:00.427Z,6.89
2019-01-03T09:35:39.078Z,6.58
2019-01-03T09:38:11.970Z,6.45
2019-01-03T09:40:47.417Z,6.66
2019-01-03T09:43:23.088Z,6.61
2019-01-03T09:45:51.360Z,6.69
2019-01-03T09:48:19.619Z,6.92
2019-01-03T09:50:47.937Z,6.15
2019-01-03T09:53:16.169Z,6.37
2019-01-03T09:55:44.442Z,6.63
2019-01-03T09:58:12.717Z,6.07
2019-01-03T10:00:41.011Z,7.11
2019-01-03T10:03:09.551Z,6.25
2019-01-03T10:05:37.879Z,6.85
2019-01-03T10:08:07.404Z,7.63
2019-01-03T10:10:36.900Z,6.71
2019-01-03T10:13:05.269Z,6.77
2019-01-03T10:15:33.572Z,6.39
2019-01-03T10:18:01.827Z,6.85
2019-01-03T10:20:30.079Z,6.90
2019-01-03T10:22:58.352Z,6.86
2019-01-03T10:25:26.612Z,7.53
2019-01-03T10:27:54.920Z,6.04
2019-01-03T10:30:23.227Z,5.99
2019-01-03T10:32:51.477Z,6.80
2019-01-03T10:35:19.761Z,6.35
2019-01-03T10:37:48.035Z,7.19
2019-01-03T10:40:16.363Z,6.92
2019-01-03T10:42:44.627Z,6.58
2019-01-03T10:45:12.900Z,6.44
2019-01-03T10:47:41.243Z,6.75
2019-01-03T10:50:09.518Z,7.20
2019-01-03T10:52:37.780Z,7.43
2019-01-03T10:55:06.984Z,6.85
2019-01-03T10:57:35.263Z,6.43
2019-01-03T11:00:04.664Z,6.29
2019-01-03T11:02:32.941Z,6.41
2019-01-03T11:05:01.219Z,6.44
2019-01-03T11:07:31.122Z,6.67
2019-01-03T11:09:59.405Z,6.37
2019-01-03T11:12:27.789Z,6.73
2019-01-03T11:14:56.032Z,6.32
2019-01-03T11:17:24.315Z,7.23
2019-01-03T11:19:52.575Z,6.52
2019-01-03T11:22:20.943Z,6.77
2019-01-03T11:24:49.233Z,7.18
2019-01-03T11:27:17.521Z,7.62
2019-01-03T11:29:45.798Z,7.26
2019-01-03T11:32:14.064Z,6.75
2019-01-03T11:34:42.375Z,7.35
2019-01-03T11:37:10.640Z,6.56
2019-01-03T11:42:50.970Z,6.79
2019-01-03T11:45:19.255Z,6.38
2019-01-03T11:47:47.522Z,6.87
2019-01-03T11:50:15.813Z,6.75
2019-01-03T11:52:44.122Z,7.49
2019-01-03T11:55:12.394Z,7.19
2019-01-03T11:57:40.712Z,7.08
2019-01-03T12:00:10.427Z,7.18
2019-01-03T12:02:38.713Z,7.47
2019-01-03T12:05:08.125Z,7.66
2019-01-03T12:07:57.395Z,7.51
2019-01-03T12:10:25.699Z,7.12
2019-01-03T12:12:53.987Z,7.04
2019-01-03T12:15:22.265Z,7.84
2019-01-03T12:17:50.532Z,7.49
2019-01-03T12:20:18.816Z,6.60
2019-01-03T12:22:47.097Z,6.70
2019-01-03T12:25:15.399Z,7.14
2019-01-03T12:27:43.696Z,6.92
2019-01-03T12:30:12.153Z,6.87
2019-01-03T12:32:47.662Z,6.83
2019-01-03T12:35:15.989Z,7.08
2019-01-03T12:37:44.283Z,7.66
2019-01-03T12:40:17.726Z,7.25
2019-01-03T12:42:46.021Z,7.26
2019-01-03T12:45:14.377Z,6.91
2019-01-03T12:47:42.662Z,7.40
2019-01-03T12:50:11.207Z,7.52
2019-01-03T12:52:39.579Z,7.55
2019-01-03T12:55:07.868Z,7.93
2019-01-03T12:57:36.169Z,7.41
2019-01-03T13:00:08.364Z,7.18
2019-01-03T13:02:38.669Z,7.27
2019-01-03T13:05:07.347Z,7.37
2019-01-03T13:07:35.685Z,6.93
2019-01-03T13:10:05.816Z,7.58
2019-01-03T13:12:34.098Z,7.43
2019-01-03T13:15:02.459Z,7.36
2019-01-03T13:20:54.114Z,7.59
2019-01-03T13:23:22.370Z,7.39
2019-01-03T13:25:50.848Z,7.49
2019-01-03T13:28:19.986Z,7.71
2019-01-03T13:30:48.255Z,8.81
2019-01-03T13:33:16.581Z,7.45
2019-01-03T13:35:44.907Z,8.07
2019-01-03T13:38:13.166Z,7.30
2019-01-03T13:40:41.458Z,7.60
2019-01-03T13:43:11.363Z,7.93
2019-01-03T13:45:41.272Z,7.68
2019-01-03T13:48:12.536Z,7.91
2019-01-03T13:50:43.981Z,7.80
2019-01-03T13:53:12.263Z,7.70
2019-01-03T13:55:42.403Z,7.74
2019-01-03T13:58:12.268Z,8.25
2019-01-03T14:00:44.826Z,8.48
2019-01-03T14:03:13.111Z,8.45
2019-01-03T14:05:41.388Z,8.37
2019-01-03T14:08:11.307Z,8.16
2019-01-03T14:10:39.675Z,8.13
2019-01-03T14:13:09.258Z,8.09
2019-01-03T14:15:37.487Z,7.71
2019-01-03T14:18:05.820Z,7.88
2019-01-03T14:20:34.102Z,8.20
2019-01-03T14:23:02.370Z,8.42
2019-01-03T14:25:32.199Z,8.27
2019-01-03T14:28:00.471Z,7.79
2019-01-03T14:30:28.755Z,8.29
2019-01-03T14:32:57.048Z,7.24
2019-01-03T14:35:25.326Z,7.96
2019-01-03T14:40:38.045Z,7.35
2019-01-03T14:43:06.409Z,7.66
2019-01-03T14:45:34.678Z,7.63
2019-01-03T14:48:02.943Z,7.87
2019-01-03T14:50:33.397Z,7.85
2019-01-03T14:53:01.662Z,6.92
2019-01-03T14:55:29.951Z,7.39
2019-01-03T14:57:58.222Z,6.91
2019-01-03T15:00:26.494Z,7.21
2019-01-03T15:02:54.852Z,7.21
2019-01-03T15:05:23.146Z,7.08
2019-01-03T15:07:51.439Z,6.91
2019-01-03T15:10:19.734Z,7.26
2019-01-03T15:12:48.031Z,7.37
2019-01-03T15:15:17.935Z,8.10
2019-01-03T15:17:46.225Z,6.99
2019-01-03T15:20:14.511Z,8.08
2019-01-03T15:22:42.820Z,7.66
2019-01-03T15:25:11.175Z,7.45
2019-01-03T15:27:42.791Z,7.64
2019-01-03T15:30:14.082Z,6.52
2019-01-03T15:32:42.403Z,7.39
2019-01-03T15:35:12.323Z,7.71
2019-01-03T15:37:42.243Z,8.85
2019-01-03T15:43:28.556Z,7.29
2019-01-03T15:45:56.847Z,7.51
2019-01-03T15:48:25.165Z,7.40
2019-01-03T15:50:53.436Z,7.66
2019-01-03T15:53:21.735Z,7.69
2019-01-03T15:55:50.006Z,7.50
2019-01-03T15:58:18.297Z,7.90
2019-01-03T16:00:46.636Z,7.52
2019-01-03T16:03:14.895Z,7.86
2019-01-03T16:05:43.238Z,7.97
2019-01-03T16:08:11.533Z,7.93
2019-01-03T16:10:39.794Z,7.86
2019-01-03T16:13:08.105Z,7.34
2019-01-03T16:15:36.432Z,7.21
2019-01-03T16:18:04.774Z,7.27
2019-01-03T16:20:33.085Z,7.83
2019-01-03T16:23:03.995Z,7.19
2019-01-03T16:25:34.969Z,7.02
2019-01-03T16:28:04.505Z,7.67
2019-01-03T16:30:34.191Z,7.36
2019-01-03T16:33:02.485Z,7.51
2019-01-03T16:35:30.871Z,7.33
2019-01-03T16:37:59.395Z,7.96
2019-01-03T16:40:27.684Z,7.88
2019-01-03T16:42:55.954Z,7.88
2019-01-03T16:45:24.235Z,7.80
2019-01-03T16:47:52.546Z,8.61
2019-01-03T16:50:20.810Z,8.42
2019-01-03T16:52:49.123Z,8.10
2019-01-03T16:55:17.400Z,8.09
2019-01-03T16:57:45.685Z,7.36
2019-01-03T17:00:13.961Z,7.84
2019-01-03T17:02:42.221Z,6.99
2019-01-03T17:05:10.593Z,7.05
2019-01-03T17:07:38.846Z,6.76
2019-01-03T17:10:10.325Z,7.91
2019-01-03T17:12:38.634Z,8.18
2019-01-03T17:15:07.178Z,7.72
2019-01-03T17:17:35.462Z,7.70
2019-01-03T17:20:05.864Z,7.59
2019-01-03T17:22:34.177Z,7.74
2019-01-03T17:25:02.475Z,7.74
2019-01-03T17:27:30.748Z,7.88
2019-01-03T17:29:59.029Z,7.76
2019-01-03T17:32:27.322Z,7.33
2019-01-03T17:34:55.618Z,8.54
2019-01-03T17:37:23.883Z,8.57
2019-01-03T17:39:52.203Z,7.38
2019-01-03T17:42:20.461Z,8.22
2019-01-03T17:44:48.738Z,8.12
2019-01-03T17:47:17.034Z,7.43
2019-01-03T17:49:45.327Z,7.55
2019-01-03T17:52:13.594Z,7.33
2019-01-03T17:54:41.853Z,7.66
2019-01-03T17:57:10.123Z,7.34
2019-01-03T17:59:38.386Z,7.00
2019-01-03T18:02:07.018Z,7.51
2019-01-03T18:04:35.309Z,7.29
2019-01-03T18:07:03.575Z,7.11
2019-01-03T18:09:31.867Z,7.26
2019-01-03T18:12:00.107Z,7.29
2019-01-03T18:14:28.391Z,7.33
2019-01-03T18:16:56.690Z,6.94
2019-01-03T18:19:24.964Z,6.97
2019-01-03T18:21:53.242Z,6.68
2019-01-03T18:24:21.535Z,7.19
2019-01-03T18:26:49.825Z,6.77
2019-01-03T18:29:18.141Z,7.14
2019-01-03T18:31:46.420Z,7.00
2019-01-03T18:34:14.670Z,7.14
2019-01-03T18:36:42.950Z,6.94
2019-01-03T18:39:14.262Z,7.04
2019-01-03T18:41:42.540Z,6.86
2019-01-03T18:44:10.919Z,7.03
2019-01-03T18:46:39.193Z,7.33
2019-01-03T18:49:07.492Z,7.57
2019-01-03T18:51:35.764Z,8.07
2019-01-03T18:54:05.800Z,8.25
2019-01-03T18:56:35.410Z,7.20
2019-01-03T18:59:03.830Z,7.01
2019-01-03T19:01:32.129Z,7.16
2019-01-03T19:04:00.391Z,7.77
2019-01-03T19:06:28.681Z,8.43
2019-01-03T19:08:57.005Z,7.65
2019-01-03T19:11:25.287Z,7.05
2019-01-03T19:13:53.558Z,7.91
2019-01-03T19:16:21.839Z,8.76
2019-01-03T19:18:50.100Z,8.40
2019-01-03T19:21:20.633Z,8.22
2019-01-03T19:23:55.259Z,7.98
2019-01-03T19:26:19.311Z,8.50
2019-01-03T19:28:47.582Z,9.09
2019-01-03T19:31:15.866Z,8.92
2019-01-03T19:33:44.155Z,8.86
2019-01-03T19:36:12.493Z,7.93
2019-01-03T19:38:40.803Z,8.09
2019-01-03T19:41:09.074Z,8.81
2019-01-03T19:43:37.344Z,8.61
2019-01-03T19:46:05.626Z,8.61
2019-01-03T19:48:33.902Z,7.61
2019-01-03T19:51:02.234Z,8.35
2019-01-03T19:53:30.473Z,8.39
2019-01-03T19:55:58.845Z,7.99
2019-01-03T19:58:27.125Z,7.97
2019-01-03T20:00:55.414Z,7.99
2019-01-03T20:03:23.678Z,7.82
2019-01-03T20:05:52.052Z,8.14
2019-01-03T20:08:20.337Z,8.09
2019-01-03T20:10:48.692Z,8.29
2019-01-03T20:13:16.974Z,7.83
2019-01-03T20:15:45.250Z,7.48
2019-01-03T20:18:13.522Z,8.54
2019-01-03T20:20:43.438Z,8.88
2019-01-03T20:23:11.810Z,8.66
2019-01-03T20:25:40.098Z,8.27
2019-01-03T20:28:08.392Z,8.68
2019-01-03T20:30:36.682Z,8.43
2019-01-03T20:33:04.953Z,8.57
2019-01-03T20:35:33.237Z,8.23
2019-01-03T20:38:01.598Z,8.31
2019-01-03T20:40:29.934Z,8.43
2019-01-03T20:42:58.208Z,8.69
2019-01-03T20:45:26.586Z,8.53
2019-01-03T20:47:54.918Z,8.15
2019-01-03T20:50:23.210Z,8.31
2019-01-03T20:52:51.504Z,7.61
2019-01-03T20:55:19.854Z,7.31
2019-01-03T20:57:48.139Z,7.54
2019-01-03T21:00:16.547Z,7.86
2019-01-03T21:02:44.944Z,7.66
2019-01-03T21:05:13.232Z,7.87
2019-01-03T21:07:41.498Z,7.50
2019-01-03T21:10:11.137Z,7.34
2019-01-03T21:12:39.499Z,8.03
2019-01-03T21:15:13.401Z,8.28
2019-01-03T21:17:41.752Z,7.92
2019-01-03T21:20:12.374Z,8.19
2019-01-03T21:22:40.900Z,7.93
2019-01-03T21:25:09.815Z,7.91
2019-01-03T21:27:39.730Z,8.08
2019-01-03T21:30:11.429Z,8.11
2019-01-03T21:32:39.700Z,7.84
2019-01-03T21:35:08.138Z,8.42
2019-01-03T21:37:36.411Z,8.15
2019-01-03T21:40:07.746Z,7.78
2019-01-03T21:42:38.877Z,7.83
2019-01-03T21:45:07.476Z,7.44
2019-01-03T21:47:35.813Z,7.43
2019-01-03T21:50:06.332Z,7.35
2019-01-03T21:52:34.638Z,7.45
2019-01-03T21:55:02.944Z,7.71
2019-01-03T21:57:31.191Z,7.25
2019-01-03T21:59:59.471Z,7.16
2019-01-03T22:02:27.936Z,7.12
2019-01-03T22:04:56.282Z,7.64
2019-01-03T22:07:24.665Z,7.37
2019-01-03T22:09:52.922Z,7.15
2019-01-03T22:12:21.230Z,7.75
2019-01-03T22:14:49.524Z,7.32
2019-01-03T22:17:19.457Z,7.46
2019-01-03T22:19:47.737Z,6.84
2019-01-03T22:22:16.154Z,7.12
2019-01-03T22:24:44.430Z,6.51
2019-01-03T22:27:12.685Z,7.13
2019-01-03T22:29:43.975Z,7.38
2019-01-03T22:32:12.233Z,7.31
2019-01-03T22:34:40.522Z,7.30
2019-01-03T22:37:09.003Z,7.14
2019-01-03T22:39:37.294Z,7.77
2019-01-03T22:42:05.559Z,7.65
2019-01-03T22:44:33.835Z,7.42
2019-01-03T22:47:02.122Z,7.12
2019-01-03T22:49:31.926Z,7.06
2019-01-03T22:52:00.189Z,7.05
2019-01-03T22:54:28.614Z,6.72
2019-01-03T22:56:56.894Z,7.40
2019-01-03T22:59:25.196Z,7.63
2019-01-03T23:01:53.509Z,7.41
2019-01-03T23:04:21.790Z,7.38
2019-01-03T23:06:50.125Z,8.06
2019-01-03T23:09:20.519Z,7.43
2019-01-03T23:11:48.832Z,7.45
2019-01-03T23:14:17.156Z,7.44
2019-01-03T23:16:45.417Z,7.08
2019-01-03T23:19:13.695Z,6.62
2019-01-03T23:21:41.955Z,7.53
2019-01-03T23:24:10.262Z,7.08
2019-01-03T23:26:38.531Z,7.50
2019-01-03T23:29:06.822Z,7.50
2019-01-03T23:31:35.095Z,6.65
2019-01-03T23:34:03.384Z,6.98
2019-01-03T23:36:31.660Z,6.60
2019-01-03T23:38:59.955Z,6.70
2019-01-03T23:41:28.262Z,6.60
2019-01-03T23:43:56.573Z,7.35
2019-01-03T23:46:24.851Z,8.07
2019-01-03T23:48:53.152Z,7.19
2019-01-03T23:51:21.414Z,7.36
2019-01-03T23:53:49.769Z,7.43
2019-01-03T23:56:18.057Z,7.70
2019-01-03T23:58:46.331Z,7.65
